Alton, IL

3:12 PM CST on December 28, 2014 (GMT -0600)
KILALTON7 | Change Station
CLOSE
Current Station
Personal Weather Station
Location: Alton, IL
Elevation: 489 ft
Nearby Weather Stations

Elev 489 ft 38.91 °N, 90.14 °W | Updated 2 minutes ago

Overcast
Overcast
38.1 °F
Feels Like 38 °F
N
2.2
Wind Variable Wind from West
Gusts 2.2 mph

Today
High -- | Low -- °F
--% Chance of Precip.
Yesterday
High -- | Low -- °F
Precip. -- in
7:18 AM 4:46 PM
Waxing Crescent, 51% visible
Pressure 30.22 in
Visibility 10.0 miles
Clouds Clear
Windchill 38 °F
Dew Point 24 °F
Humidity 56%
Rainfall 0.00 in
Snow Depth Not available.
UV 1 out of 12
Pollen .40 out of 12
Air Quality Not available.
Flu Activity Not available.
METAR KSET 282054Z AUTO 28003KT 10SM CLR 02/M04 A3021 RMK AO2 SLP232 T00171044 55009

More Conditions Fewer Conditions

Pressure 30.22 in
Visibility 10.0 miles
Clouds Clear
Windchill 38 °F
Dew Point 24 °F
Humidity 56%
Rainfall 0.00 in
Snow Depth Not available.
UV 1 out of 12
Pollen .40 out of 12
Air Quality Not available.
Flu Activity Not available.
METAR KSET 282054Z AUTO 28003KT 10SM CLR 02/M04 A3021 RMK AO2 SLP232 T00171044 55009

More Conditions Fewer Conditions

10-Day Weather Forecast

Almanac

Astronomy

Dec. 28, 2014 Rise Set
Actual Time
Civil Twilight
Nautical Twilight
Astronomical Twilight
Moon
Length of Visible Light
Length of Day
Tomorrow will be .
, % of the Moon is Illuminated

Today's Extremes

State Highs State Lows

Community

WunderPhotos

Upload Photos

1,781,429 photos uploaded!

WunderBlogs® & News

Nearby

Air Quality

  Air Quality AQ Index Pollutant
Not available.

Snow Depth

Station Depth Elevation

Earthquake Activity

City Distance Mag. Time & Date
Minimum magnitude displayed is 2.5.

Coastal Water Temperatures

Place Temperature

Nearby Weather Stations